Temp: 8.9°C   Baro: 994.7mb
  Wind: 9.0mph   Dir: SSW (212°)
  Rain: 0.0mm (0.0mm/hr)
  Solar: 0W/m2  Hum: 87%
 
Bath Spa Weather Station Historical Data
Daily Summary for September 13, 2020 Units:  Metric    English   Both
Daily Weekly Monthly Yearly Custom
  High: Low: Average:
Temperature: 23.7 °C 11.6 °C 16.8 °C
Dew Point: 17.3 °C 9.9 °C 13.3 °C
Humidity: 88% 62.6% 78%
Wind Speed: 9.3km/h 0km/h 3.9km/h
Wind Gust: 16.1km/h - -
Wind- - West
Pressure: 1023.9 hPa 1021.9 hPa -
Precipitation: 0 mm    
Historical Graphs
 
 
Tabular Data for September 13, 2020
Time Temperature Dew Point Pressure Wind Wind Speed Wind Gust Humidity Rainfall Rate (Hourly) solar
00:04 13.4 °C 10.9 °C 1022.2 hPa Calm     82% 0 mm 0 W/m2
00:09 13.3 °C 10.8 °C 1022.2 hPa Calm     82% 0 mm 0 W/m2
00:14 13.2 °C 10.7 °C 1022.2 hPa Calm   1.6 km/h 82% 0 mm 0 W/m2
00:19 13 °C 10.5 °C 1022.2 hPa Calm     82% 0 mm 0 W/m2
00:24 12.8 °C 10.4 °C 1022.2 hPa Calm     82.4% 0 mm 0 W/m2
00:29 12.7 °C 10.4 °C 1021.9 hPa WSW 1.1 km/h 3.2 km/h 83% 0 mm 0 W/m2
00:34 12.7 °C 10.3 °C 1021.9 hPa WSW 0.8 km/h 3.2 km/h 83% 0 mm 0 W/m2
00:39 12.6 °C 10.4 °C 1021.9 hPa WSW 1.3 km/h 3.2 km/h 83.8% 0 mm 0 W/m2
00:44 12.5 °C 10.4 °C 1021.9 hPa WSW 1.9 km/h 4.8 km/h 84% 0 mm 0 W/m2
00:49 12.4 °C 10.3 °C 1021.9 hPa WSW 1.9 km/h 4.8 km/h 84% 0 mm 0 W/m2
00:54 12.4 °C 10.3 °C 1021.9 hPa WSW 3.2 km/h 6.4 km/h 84% 0 mm 0 W/m2
00:59 12.4 °C 10.3 °C 1021.9 hPa West 3.2 km/h 8 km/h 84% 0 mm 0 W/m2
01:04 12.4 °C 10.3 °C 1021.9 hPa NW 3.7 km/h 8 km/h 84% 0 mm 0 W/m2
01:09 12.4 °C 10.3 °C 1021.9 hPa WNW 3.9 km/h 8 km/h 84% 0 mm 0 W/m2
01:14 12.4 °C 10.3 °C 1021.9 hPa WNW 4.2 km/h 9.7 km/h 84% 0 mm 0 W/m2
01:19 12.4 °C 10.2 °C 1021.9 hPa WNW 2.4 km/h 6.4 km/h 83.8% 0 mm 0 W/m2
01:24 12.4 °C 10.2 °C 1021.9 hPa WNW 2.9 km/h 6.4 km/h 83.2% 0 mm 0 W/m2
01:29 12.4 °C 10.2 °C 1021.9 hPa WNW 2.9 km/h 8 km/h 83% 0 mm 0 W/m2
01:34 12.5 °C 10.2 °C 1021.9 hPa WNW 5 km/h 6.4 km/h 83% 0 mm 0 W/m2
01:39 12.6 °C 10.3 °C 1021.9 hPa West 5.1 km/h 9.7 km/h 83% 0 mm 0 W/m2
01:44 12.7 °C 10.4 °C 1021.9 hPa West 3.5 km/h 8 km/h 83% 0 mm 0 W/m2
01:49 12.7 °C 10.4 °C 1021.9 hPa WSW 4.5 km/h 9.7 km/h 83% 0 mm 0 W/m2
01:54 12.7 °C 10.4 °C 1021.9 hPa WSW 4.5 km/h 8 km/h 83% 0 mm 0 W/m2
01:59 12.8 °C 10.4 °C 1021.9 hPa WSW 5.6 km/h 9.7 km/h 82.5% 0 mm 0 W/m2
02:04 12.8 °C 10.3 °C 1021.9 hPa WSW 4 km/h 8 km/h 82% 0 mm 0 W/m2
02:09 12.8 °C 10.3 °C 1021.9 hPa WSW 3.4 km/h 6.4 km/h 82% 0 mm 0 W/m2
02:14 12.7 °C 10.2 °C 1021.9 hPa WSW 2.1 km/h 8 km/h 82% 0 mm 0 W/m2
02:19 12.7 °C 10.3 °C 1021.9 hPa WSW 1 km/h 3.2 km/h 82.6% 0 mm 0 W/m2
02:24 12.6 °C 10.3 °C 1021.9 hPa Calm   3.2 km/h 83% 0 mm 0 W/m2
02:29 12.6 °C 10.3 °C 1021.9 hPa WSW 1 km/h 4.8 km/h 83% 0 mm 0 W/m2
02:34 12.4 °C 10.1 °C 1021.9 hPa West 3.9 km/h 6.4 km/h 83% 0 mm 0 W/m2
02:39 12.2 °C 9.9 °C 1021.9 hPa West 3.4 km/h 6.4 km/h 83% 0 mm 0 W/m2
02:44 12.2 °C 10.1 °C 1021.9 hPa West 1.9 km/h 6.4 km/h 84% 0 mm 0 W/m2
02:49 12.1 °C 10 °C 1021.9 hPa West 3.2 km/h 6.4 km/h 84% 0 mm 0 W/m2
02:54 12.1 °C 10.1 °C 1021.9 hPa Calm   4.8 km/h 84.8% 0 mm 0 W/m2
02:59 12.1 °C 10.1 °C 1021.9 hPa West 0.3 km/h 3.2 km/h 85% 0 mm 0 W/m2
03:04 12.1 °C 10.1 °C 1021.9 hPa Calm   3.2 km/h 85% 0 mm 0 W/m2
03:09 12.1 °C 10.1 °C 1021.9 hPa West 0.6 km/h 3.2 km/h 85% 0 mm 0 W/m2
03:14 12 °C 10 °C 1021.9 hPa West 0.6 km/h 4.8 km/h 85% 0 mm 0 W/m2
03:19 12 °C 10.1 °C 1021.9 hPa West 2.9 km/h 4.8 km/h 85.6% 0 mm 0 W/m2
03:24 12 °C 10.2 °C 1021.9 hPa West 2.1 km/h 4.8 km/h 86% 0 mm 0 W/m2
03:29 12 °C 10.2 °C 1021.9 hPa West 2.6 km/h 4.8 km/h 86% 0 mm 0 W/m2
03:34 11.9 °C 10.1 °C 1022.2 hPa West 4.3 km/h 6.4 km/h 86% 0 mm 0 W/m2
03:39 11.9 °C 10.2 °C 1022.2 hPa NW 3.7 km/h 8 km/h 86.2% 0 mm 0 W/m2
03:44 11.9 °C 10.2 °C 1022.2 hPa NNW 4.5 km/h 11.3 km/h 86.8% 0 mm 0 W/m2
03:49 11.8 °C 10.2 °C 1021.9 hPa NNW 3.1 km/h 6.4 km/h 86.8% 0 mm 0 W/m2
03:54 11.8 °C 10.2 °C 1022.2 hPa NNW 4.7 km/h 6.4 km/h 87% 0 mm 0 W/m2
03:59 11.8 °C 10.2 °C 1021.9 hPa NNW 4.7 km/h 8 km/h 87% 0 mm 0 W/m2
04:04 11.8 °C 10.2 °C 1021.9 hPa NNW 3.4 km/h 6.4 km/h 87% 0 mm 0 W/m2
04:09 11.8 °C 10.2 °C 1021.9 hPa NNW 3.5 km/h 6.4 km/h 87% 0 mm 0 W/m2
04:14 11.8 °C 10.2 °C 1021.9 hPa NNW 4.7 km/h 8 km/h 87% 0 mm 0 W/m2
04:19 11.8 °C 10.2 °C 1021.9 hPa NNW 5.8 km/h 9.7 km/h 87% 0 mm 0 W/m2
04:24 11.8 °C 10.2 °C 1022.2 hPa NNW 4.3 km/h 8 km/h 87% 0 mm 0 W/m2
04:29 11.8 °C 10.2 °C 1022.2 hPa NNW 5 km/h 8 km/h 87% 0 mm 0 W/m2
04:34 11.8 °C 10.2 °C 1022.2 hPa NNW 3.1 km/h 8 km/h 87% 0 mm 0 W/m2
04:39 11.8 °C 10.3 °C 1022.2 hPa WNW 5.3 km/h 9.7 km/h 87% 0 mm 0 W/m2
04:44 11.9 °C 10.3 °C 1022.2 hPa WNW 4 km/h 8 km/h 87% 0 mm 0 W/m2
04:49 11.9 °C 10.3 °C 1022.2 hPa WNW 5.3 km/h 9.7 km/h 87% 0 mm 0 W/m2
04:54 11.9 °C 10.3 °C 1022.2 hPa NW 6 km/h 11.3 km/h 87% 0 mm 0 W/m2
04:59 11.9 °C 10.3 °C 1022.2 hPa WNW 7.4 km/h 11.3 km/h 87% 0 mm 0 W/m2
05:04 11.9 °C 10.3 °C 1022.2 hPa NW 5.1 km/h 11.3 km/h 87% 0 mm 0 W/m2
05:09 11.9 °C 10.3 °C 1022.2 hPa NW 6.1 km/h 11.3 km/h 87% 0 mm 0 W/m2
05:14 11.9 °C 10.3 °C 1022.2 hPa NW 6 km/h 9.7 km/h 87% 0 mm 0 W/m2
05:19 11.9 °C 10.3 °C 1022.2 hPa NW 7.2 km/h 12.9 km/h 87% 0 mm 0 W/m2
05:24 11.9 °C 10.3 °C 1021.9 hPa NNW 7.7 km/h 11.3 km/h 87% 0 mm 0 W/m2
05:29 11.8 °C 10.2 °C 1021.9 hPa NW 6 km/h 8 km/h 87% 0 mm 0 W/m2
05:34 11.8 °C 10.2 °C 1022.2 hPa NW 5.8 km/h 9.7 km/h 86.8% 0 mm 0 W/m2
05:39 11.8 °C 10.2 °C 1022.2 hPa NW 4 km/h 9.7 km/h 87% 0 mm 0 W/m2
05:44 11.8 °C 10.2 °C 1022.2 hPa NW 5.8 km/h 9.7 km/h 87% 0 mm 0 W/m2
05:49 11.8 °C 10.2 °C 1022.2 hPa NW 5.3 km/h 9.7 km/h 87% 0 mm 0 W/m2
05:54 11.8 °C 10.2 °C 1022.2 hPa NW 4.8 km/h 9.7 km/h 87% 0 mm 0 W/m2
05:59 11.8 °C 10.2 °C 1022.2 hPa NW 4 km/h 8 km/h 87% 0 mm 0 W/m2
06:04 11.8 °C 10.2 °C 1022.2 hPa NW 4.7 km/h 8 km/h 87% 0 mm 0 W/m2
06:09 11.8 °C 10.2 °C 1022.2 hPa NW 2.6 km/h 8 km/h 87% 0 mm 0 W/m2
06:14 11.8 °C 10.2 °C 1022.2 hPa NW 2.7 km/h 4.8 km/h 87% 0 mm 0 W/m2
06:19 11.7 °C 10.2 °C 1022.2 hPa NW 4.7 km/h 6.4 km/h 87% 0 mm 0 W/m2
06:24 11.7 °C 10.1 °C 1022.6 hPa NW 4.7 km/h 6.4 km/h 87% 0 mm 0 W/m2
06:29 11.7 °C 10.1 °C 1022.6 hPa NW 4.2 km/h 6.4 km/h 87% 0 mm 0 W/m2
06:34 11.6 °C 10 °C 1022.2 hPa NW 5.5 km/h 8 km/h 87% 0 mm 0 W/m2
06:39 11.6 °C 10 °C 1022.2 hPa NNW 4.5 km/h 8 km/h 87% 0 mm 0 W/m2
06:44 11.6 °C 10 °C 1022.2 hPa NNW 5.5 km/h 8 km/h 87% 0 mm 0 W/m2
06:49 11.6 °C 10.1 °C 1022.2 hPa NW 4.7 km/h 8 km/h 87.6% 0 mm 5 W/m2
06:54 11.7 °C 10.2 °C 1022.6 hPa NW 2.9 km/h 6.4 km/h 88% 0 mm 9 W/m2
06:59 11.7 °C 10.2 °C 1022.6 hPa NW 3.2 km/h 4.8 km/h 88% 0 mm 14 W/m2
07:04 11.7 °C 10.3 °C 1022.6 hPa NW 2.9 km/h 6.4 km/h 88% 0 mm 19 W/m2
07:09 11.7 °C 10.3 °C 1022.6 hPa NW 1.9 km/h 4.8 km/h 88% 0 mm 21 W/m2
07:14 11.7 °C 10.3 °C 1022.6 hPa NW 2.6 km/h 4.8 km/h 88% 0 mm 26 W/m2
07:19 11.7 °C 10.3 °C 1022.6 hPa NW 3.7 km/h 6.4 km/h 88% 0 mm 30 W/m2
07:24 11.8 °C 10.3 °C 1022.9 hPa NW 3.5 km/h 4.8 km/h 88% 0 mm 33 W/m2
07:29 11.8 °C 10.4 °C 1022.9 hPa NW 2.6 km/h 6.4 km/h 88% 0 mm 35 W/m2
07:34 11.9 °C 10.5 °C 1022.9 hPa NW 2.6 km/h 4.8 km/h 88% 0 mm 39 W/m2
07:39 11.9 °C 10.6 °C 1022.9 hPa NW 3.1 km/h 4.8 km/h 88% 0 mm 40 W/m2
07:44 12.1 °C 10.7 °C 1022.9 hPa NW 4 km/h 6.4 km/h 88% 0 mm 40 W/m2
07:49 12.2 °C 10.8 °C 1022.9 hPa NW 2.9 km/h 6.4 km/h 88% 0 mm 42 W/m2
07:54 12.3 °C 10.9 °C 1022.9 hPa NW 4 km/h 8 km/h 88% 0 mm 44 W/m2
07:59 12.6 °C 11.2 °C 1022.9 hPa NW 3.2 km/h 6.4 km/h 88% 0 mm 47 W/m2
08:04 12.7 °C 11.2 °C 1023.2 hPa NW 2.9 km/h 4.8 km/h 87.4% 0 mm 54 W/m2
08:09 12.8 °C 11.3 °C 1023.2 hPa NW 2.7 km/h 4.8 km/h 87% 0 mm 63 W/m2
08:14 13.1 °C 11.5 °C 1023.2 hPa NW 2.3 km/h 6.4 km/h 87% 0 mm 74 W/m2
08:19 13.3 °C 11.6 °C 1023.2 hPa NW 2.4 km/h 6.4 km/h 86.3% 0 mm 84 W/m2
08:24 13.4 °C 11.6 °C 1023.2 hPa NW 4.8 km/h 6.4 km/h 86% 0 mm 100 W/m2
08:29 13.7 °C 11.8 °C 1023.2 hPa NW 2.7 km/h 6.4 km/h 86% 0 mm 116 W/m2
08:34 13.8 °C 11.8 °C 1023.2 hPa Calm   6.4 km/h 85% 0 mm 130 W/m2
08:39 14.2 °C 12.2 °C 1023.2 hPa NW 1 km/h 4.8 km/h 85% 0 mm 146 W/m2
08:44 14.4 °C 12.3 °C 1023.2 hPa SW 2.7 km/h 8 km/h 84.6% 0 mm 163 W/m2
08:49 14.7 °C 12.4 °C 1023.2 hPa SW 1.3 km/h 4.8 km/h 84% 0 mm 179 W/m2
08:54 14.8 °C 12.5 °C 1023.2 hPa SSW 2.7 km/h 9.7 km/h 83.2% 0 mm 193 W/m2
08:59 15 °C 12.6 °C 1023.2 hPa SW 3.5 km/h 9.7 km/h 83% 0 mm 207 W/m2
09:04 15.2 °C 12.7 °C 1023.2 hPa SW 2.9 km/h 8 km/h 82.8% 0 mm 221 W/m2
09:08 15.3 °C 12.7 °C 1023.2 hPa WSW 6.8 km/h 11.3 km/h 82.3% 0 mm 236 W/m2
09:14 15.2 °C 12.7 °C 1023.2 hPa WSW 4.7 km/h 14.5 km/h 82% 0 mm 251 W/m2
09:19 15.4 °C 12.8 °C 1023.2 hPa WSW 6 km/h 16.1 km/h 82% 0 mm 267 W/m2
09:24 15.7 °C 13 °C 1023.6 hPa WSW 8.5 km/h 14.5 km/h 81.8% 0 mm 272 W/m2
09:29 15.7 °C 12.9 °C 1023.6 hPa WSW 6.4 km/h 14.5 km/h 81% 0 mm 274 W/m2
09:34 15.8 °C 12.8 °C 1023.6 hPa WSW 7.2 km/h 11.3 km/h 80% 0 mm 297 W/m2
09:39 15.9 °C 12.9 °C 1023.6 hPa West 5.5 km/h 11.3 km/h 80% 0 mm 315 W/m2
09:44 15.9 °C 12.9 °C 1023.6 hPa WSW 7.2 km/h 12.9 km/h 80% 0 mm 316 W/m2
09:49 16 °C 13 °C 1023.6 hPa WSW 9.3 km/h 12.9 km/h 80% 0 mm 329 W/m2
09:54 16.2 °C 13.2 °C 1023.6 hPa SW 4.8 km/h 12.9 km/h 80% 0 mm 323 W/m2
09:59 16.3 °C 13.1 °C 1023.6 hPa WSW 7.2 km/h 12.9 km/h 79.2% 0 mm 380 W/m2
10:04 16.5 °C 13.4 °C 1023.6 hPa SW 5.8 km/h 11.3 km/h 79.6% 0 mm 394 W/m2
10:09 16.6 °C 13.3 °C 1023.6 hPa WSW 5.3 km/h 16.1 km/h 79% 0 mm 410 W/m2
10:14 16.8 °C 13.5 °C 1023.6 hPa WSW 8.2 km/h 14.5 km/h 78.4% 0 mm 422 W/m2
10:19 16.8 °C 13.5 °C 1023.9 hPa SSW 5.1 km/h 12.9 km/h 78% 0 mm 429 W/m2
10:24 17.2 °C 13.7 °C 1023.9 hPa WSW 7.2 km/h 12.9 km/h 77.8% 0 mm 439 W/m2
10:29 17.3 °C 13.8 °C 1023.9 hPa WSW 6.6 km/h 12.9 km/h 77.2% 0 mm 455 W/m2
10:34 17.4 °C 13.7 °C 1023.9 hPa WSW 7.7 km/h 16.1 km/h 76.8% 0 mm 457 W/m2
10:39 17.6 °C 13.9 °C 1023.9 hPa WSW 6.6 km/h 16.1 km/h 76.6% 0 mm 468 W/m2
10:44 17.7 °C 13.9 °C 1023.9 hPa SW 7.2 km/h 16.1 km/h 76% 0 mm 476 W/m2
10:49 17.8 °C 13.9 °C 1023.9 hPa SW 6.4 km/h 12.9 km/h 75.4% 0 mm 483 W/m2
10:54 17.8 °C 13.9 °C 1023.9 hPa West 7.2 km/h 11.3 km/h 75.5% 0 mm 492 W/m2
10:59 17.8 °C 13.9 °C 1023.9 hPa West 7.2 km/h 12.9 km/h 75.8% 0 mm 501 W/m2
11:04 17.9 °C 14 °C 1023.9 hPa West 7.7 km/h 16.1 km/h 75.4% 0 mm 508 W/m2
11:09 18.1 °C 14 °C 1023.9 hPa WSW 8.5 km/h 12.9 km/h 74.4% 0 mm 515 W/m2
11:14 18.3 °C 14.1 °C 1023.9 hPa West 6 km/h 14.5 km/h 74.2% 0 mm 522 W/m2
11:19 18.7 °C 14.4 °C 1023.6 hPa West 3.4 km/h 8 km/h 73.6% 0 mm 531 W/m2
11:24 19.1 °C 14.4 °C 1023.9 hPa WSW 5.8 km/h 9.7 km/h 72% 0 mm 543 W/m2
11:29 19.2 °C 14.4 °C 1023.6 hPa West 3.5 km/h 11.3 km/h 71.8% 0 mm 550 W/m2
11:34 19.1 °C 14.2 °C 1023.6 hPa West 6.9 km/h 11.3 km/h 71.4% 0 mm 555 W/m2
11:39 19 °C 14.3 °C 1023.6 hPa West 6 km/h 9.7 km/h 72.2% 0 mm 563 W/m2
11:44 19.4 °C 14.3 °C 1023.9 hPa WNW 5.1 km/h 14.5 km/h 70.4% 0 mm 566 W/m2
11:49 19.7 °C 14.6 °C 1023.9 hPa WSW 6.3 km/h 12.9 km/h 70% 0 mm 570 W/m2
11:54 19.7 °C 14.3 °C 1023.9 hPa WSW 7.9 km/h 12.9 km/h 69.2% 0 mm 575 W/m2
11:59 19.8 °C 14.6 °C 1023.9 hPa SW 5.6 km/h 12.9 km/h 69.5% 0 mm 582 W/m2
12:04 19.8 °C 14.4 °C 1023.9 hPa SW 6.8 km/h 14.5 km/h 69% 0 mm 585 W/m2
12:09 19.8 °C 14.3 °C 1023.9 hPa SSW 5 km/h 14.5 km/h 68.4% 0 mm 589 W/m2
12:14 20.1 °C 14.4 °C 1023.9 hPa SW 6 km/h 14.5 km/h 68% 0 mm 594 W/m2
12:19 20.2 °C 14.6 °C 1023.9 hPa West 8.4 km/h 12.9 km/h 67.8% 0 mm 598 W/m2
12:24 20.2 °C 14.6 °C 1023.9 hPa SW 7.2 km/h 14.5 km/h 68% 0 mm 601 W/m2
12:29 20.2 °C 14.6 °C 1023.9 hPa WSW 5.3 km/h 12.9 km/h 68% 0 mm 605 W/m2
12:34 20.4 °C 14.6 °C 1023.6 hPa SW 7.4 km/h 14.5 km/h 67.2% 0 mm 606 W/m2
12:39 20.7 °C 14.9 °C 1023.6 hPa WSW 4.7 km/h 9.7 km/h 67.4% 0 mm 612 W/m2
12:44 20.8 °C 14.8 °C 1023.6 hPa WSW 7.4 km/h 12.9 km/h 66.6% 0 mm 610 W/m2
12:49 20.7 °C 15.2 °C 1023.6 hPa WSW 6.4 km/h 14.5 km/h 68.4% 0 mm 615 W/m2
12:54 20.8 °C 15 °C 1023.6 hPa WSW 7.9 km/h 12.9 km/h 67.2% 0 mm 615 W/m2
12:59 20.8 °C 15.6 °C 1023.6 hPa WSW 8 km/h 12.9 km/h 69.6% 0 mm 617 W/m2
13:04 20.9 °C 15.7 °C 1023.6 hPa West 4.8 km/h 11.3 km/h 70.3% 0 mm 621 W/m2
13:09 21.4 °C 16.2 °C 1023.6 hPa SW 5.3 km/h 11.3 km/h 70.2% 0 mm 621 W/m2
13:14 21.8 °C 16.2 °C 1023.6 hPa WSW 6.4 km/h 11.3 km/h 68.6% 0 mm 621 W/m2
13:19 21.4 °C 16 °C 1023.6 hPa WSW 5.8 km/h 11.3 km/h 69.2% 0 mm 622 W/m2
13:24 21.7 °C 16.2 °C 1023.2 hPa SW 4.7 km/h 11.3 km/h 69% 0 mm 622 W/m2
13:29 21.6 °C 15.9 °C 1023.2 hPa West 6.4 km/h 16.1 km/h 68.2% 0 mm 621 W/m2
13:34 21.5 °C 16.1 °C 1023.2 hPa West 5 km/h 11.3 km/h 69% 0 mm 624 W/m2
13:39 21.6 °C 16.1 °C 1023.2 hPa West 6.4 km/h 12.9 km/h 68.8% 0 mm 619 W/m2
13:44 21.6 °C 15.8 °C 1023.2 hPa WNW 5.1 km/h 12.9 km/h 68% 0 mm 619 W/m2
13:49 21.7 °C 16 °C 1023.2 hPa SW 7.9 km/h 16.1 km/h 68% 0 mm 619 W/m2
13:54 21.7 °C 15.9 °C 1023.2 hPa WSW 6 km/h 12.9 km/h 67.8% 0 mm 617 W/m2
13:59 21.8 °C 15.9 °C 1023.2 hPa SW 4.2 km/h 12.9 km/h 67.4% 0 mm 617 W/m2
14:04 22 °C 15.7 °C 1023.2 hPa WSW 6.1 km/h 12.9 km/h 65.6% 0 mm 613 W/m2
14:09 22.3 °C 15.9 °C 1023.2 hPa WSW 4.8 km/h 12.9 km/h 65% 0 mm 608 W/m2
14:14 22.4 °C 15.8 °C 1023.2 hPa SSW 6 km/h 11.3 km/h 64.2% 0 mm 606 W/m2
14:19 22.4 °C 15.7 °C 1023.2 hPa SW 4.3 km/h 12.9 km/h 63.8% 0 mm 605 W/m2
14:24 22.3 °C 15.7 °C 1023.2 hPa WSW 7.2 km/h 12.9 km/h 64.2% 0 mm 598 W/m2
14:29 22.6 °C 15.9 °C 1023.2 hPa West 8 km/h 12.9 km/h 64.2% 0 mm 594 W/m2
14:34 22.7 °C 15.9 °C 1023.2 hPa WSW 5.1 km/h 12.9 km/h 63.8% 0 mm 589 W/m2
14:39 22.3 °C 16.1 °C 1023.2 hPa West 5.5 km/h 11.3 km/h 66% 0 mm 582 W/m2
14:44 22.7 °C 16.3 °C 1023.2 hPa SSW 5.1 km/h 12.9 km/h 65.6% 0 mm 578 W/m2
14:49 22.8 °C 16.2 °C 1022.9 hPa WSW 2.7 km/h 6.4 km/h 64.8% 0 mm 575 W/m2
14:54 23.1 °C 16.3 °C 1022.9 hPa West 2.3 km/h 9.7 km/h 63.8% 0 mm 573 W/m2
14:59 22.9 °C 16 °C 1022.9 hPa West 8.9 km/h 14.5 km/h 63.2% 0 mm 564 W/m2
15:04 22.2 °C 15.8 °C 1022.9 hPa West 6 km/h 12.9 km/h 65.2% 0 mm 559 W/m2
15:09 22.4 °C 16 °C 1022.9 hPa West 7.1 km/h 14.5 km/h 65% 0 mm 550 W/m2
15:14 22.6 °C 15.9 °C 1022.9 hPa SW 6.4 km/h 14.5 km/h 64.2% 0 mm 541 W/m2
15:19 22.8 °C 16 °C 1022.6 hPa SW 6.9 km/h 12.9 km/h 63.6% 0 mm 534 W/m2
15:24 22.9 °C 16.2 °C 1022.6 hPa WNW 6 km/h 12.9 km/h 64% 0 mm 522 W/m2
15:29 22.6 °C 15.9 °C 1022.6 hPa West 5.8 km/h 12.9 km/h 64.2% 0 mm 513 W/m2
15:34 22.8 °C 16 °C 1022.6 hPa WSW 2.6 km/h 9.7 km/h 63.6% 0 mm 508 W/m2
15:39 23.1 °C 16.3 °C 1022.6 hPa NW 3.2 km/h 11.3 km/h 63.6% 0 mm 501 W/m2
15:44 23.3 °C 16.2 °C 1022.6 hPa West 5 km/h 11.3 km/h 62.6% 0 mm 490 W/m2
15:49 23.1 °C 16.1 °C 1022.6 hPa WSW 4.7 km/h 11.3 km/h 62.8% 0 mm 482 W/m2
15:54 23.4 °C 16.3 °C 1022.6 hPa SW 2.3 km/h 6.4 km/h 62.6% 0 mm 475 W/m2
15:59 23.5 °C 16.5 °C 1022.6 hPa West 4.3 km/h 9.7 km/h 63% 0 mm 462 W/m2
16:04 23.3 °C 16.3 °C 1022.2 hPa West 7.2 km/h 11.3 km/h 63.2% 0 mm 461 W/m2
16:09 23.2 °C 16.2 °C 1022.2 hPa West 5.3 km/h 11.3 km/h 63.2% 0 mm 448 W/m2
16:14 23.2 °C 16.2 °C 1022.2 hPa WNW 4.8 km/h 12.9 km/h 63.2% 0 mm 446 W/m2
16:19 23.5 °C 16.5 °C 1022.2 hPa West 2.3 km/h 9.7 km/h 63% 0 mm 422 W/m2
16:24 23.7 °C 16.7 °C 1022.2 hPa WSW 6.4 km/h 9.7 km/h 63.2% 0 mm 411 W/m2
16:29 23.7 °C 16.9 °C 1022.2 hPa WSW 4 km/h 12.9 km/h 64% 0 mm 396 W/m2
16:34 23.6 °C 16.9 °C 1022.2 hPa WSW 4.2 km/h 9.7 km/h 64% 0 mm 387 W/m2
16:39 23.7 °C 16.9 °C 1022.2 hPa SSW 5.1 km/h 11.3 km/h 64% 0 mm 374 W/m2
16:44 23.1 °C 16.6 °C 1022.2 hPa South 5.5 km/h 11.3 km/h 65% 0 mm 366 W/m2
16:49 23.1 °C 16.9 °C 1021.9 hPa SW 3.5 km/h 11.3 km/h 66.2% 0 mm 352 W/m2
16:54 23.1 °C 16.9 °C 1021.9 hPa South 6 km/h 11.3 km/h 66.2% 0 mm 338 W/m2
16:59 22.9 °C 16.9 °C 1021.9 hPa SSW 5.5 km/h 14.5 km/h 67% 0 mm 330 W/m2
17:04 22.9 °C 16.9 °C 1021.9 hPa SW 6 km/h 11.3 km/h 67% 0 mm 311 W/m2
17:09 23 °C 17.2 °C 1021.9 hPa SSW 3.2 km/h 8 km/h 67.6% 0 mm 297 W/m2
17:14 23.1 °C 17.2 °C 1021.9 hPa South 5.3 km/h 11.3 km/h 67.6% 0 mm 288 W/m2
17:19 22.9 °C 17.2 °C 1021.9 hPa SW 4.7 km/h 8 km/h 68% 0 mm 276 W/m2
17:24 22.9 °C 17.2 °C 1021.9 hPa SSW 6 km/h 11.3 km/h 68% 0 mm 262 W/m2
17:29 22.9 °C 17.2 °C 1021.9 hPa SSW 3.9 km/h 11.3 km/h 68% 0 mm 251 W/m2
17:34 23 °C 17.3 °C 1021.9 hPa SSW 3.9 km/h 9.7 km/h 68% 0 mm 237 W/m2
17:39 22.8 °C 17.1 °C 1021.9 hPa SSW 6.3 km/h 11.3 km/h 68% 0 mm 221 W/m2
17:43 22.6 °C 17 °C 1021.9 hPa SW 8.4 km/h 14.5 km/h 68.5% 0 mm 206 W/m2
17:49 22.4 °C 16.9 °C 1021.9 hPa SSW 6.4 km/h 12.9 km/h 69% 0 mm 193 W/m2
17:54 22.3 °C 16.8 °C 1021.9 hPa SW 8.4 km/h 14.5 km/h 69% 0 mm 179 W/m2
17:59 22.2 °C 16.7 °C 1021.9 hPa SSW 5.3 km/h 12.9 km/h 69% 0 mm 165 W/m2
18:03 22.3 °C 16.8 °C 1021.9 hPa SW 4.3 km/h 11.3 km/h 69% 0 mm 149 W/m2
18:09 22.2 °C 16.7 °C 1021.9 hPa SW 8 km/h 12.9 km/h 69% 0 mm 137 W/m2
18:14 21.9 °C 16.8 °C 1021.9 hPa SW 7.2 km/h 11.3 km/h 70.4% 0 mm 123 W/m2
18:19 21.8 °C 16.8 °C 1021.9 hPa SSW 6 km/h 11.3 km/h 71% 0 mm 111 W/m2
18:24 21.7 °C 16.7 °C 1021.9 hPa SW 6.3 km/h 14.5 km/h 71.4% 0 mm 98 W/m2
18:29 21.4 °C 16.6 °C 1021.9 hPa SW 5.3 km/h 14.5 km/h 72% 0 mm 88 W/m2
18:34 21.3 °C 16.5 °C 1021.9 hPa SW 5.8 km/h 9.7 km/h 72% 0 mm 76 W/m2
18:39 21.2 °C 16.3 °C 1021.9 hPa SSW 5.8 km/h 9.7 km/h 72% 0 mm 65 W/m2
18:44 21 °C 16.2 °C 1021.9 hPa SSW 5.1 km/h 11.3 km/h 72% 0 mm 56 W/m2
18:49 20.9 °C 16.3 °C 1021.9 hPa SSW 4 km/h 11.3 km/h 72.8% 0 mm 46 W/m2
18:54 20.8 °C 16.3 °C 1021.9 hPa South 1.4 km/h 6.4 km/h 73% 0 mm 37 W/m2
18:59 20.8 °C 16.3 °C 1021.9 hPa SSW 2.6 km/h 4.8 km/h 73% 0 mm 32 W/m2
19:04 20.7 °C 16.2 °C 1021.9 hPa SW 3.4 km/h 8 km/h 73% 0 mm 23 W/m2
19:09 20.5 °C 16 °C 1021.9 hPa SW 3.2 km/h 9.7 km/h 73% 0 mm 19 W/m2
19:14 20.3 °C 15.9 °C 1021.9 hPa SW 4.5 km/h 8 km/h 73.6% 0 mm 14 W/m2
19:19 20.1 °C 15.8 °C 1021.9 hPa SW 0.3 km/h 6.4 km/h 74% 0 mm 11 W/m2
19:24 20.1 °C 15.8 °C 1022.2 hPa SW 1.9 km/h 4.8 km/h 74% 0 mm 9 W/m2
19:29 19.9 °C 15.6 °C 1021.9 hPa SW 0.6 km/h 4.8 km/h 74% 0 mm 5 W/m2
19:34 19.9 °C 15.6 °C 1022.2 hPa SW 0.3 km/h 3.2 km/h 74% 0 mm 0 W/m2
19:39 19.8 °C 15.6 °C 1021.9 hPa Calm     74% 0 mm 0 W/m2
19:44 19.8 °C 15.6 °C 1022.2 hPa SW 0.3 km/h 3.2 km/h 74% 0 mm 0 W/m2
19:49 19.8 °C 15.4 °C 1022.2 hPa Calm   3.2 km/h 74% 0 mm 0 W/m2
19:54 19.7 °C 15.4 °C 1022.2 hPa Calm     74.4% 0 mm 0 W/m2
19:59 19.4 °C 15.2 °C 1022.2 hPa Calm     74.4% 0 mm 0 W/m2
20:04 19.2 °C 15.1 °C 1022.2 hPa Calm   3.2 km/h 75% 0 mm 0 W/m2
20:09 19.1 °C 14.9 °C 1022.2 hPa Calm     75% 0 mm 0 W/m2
20:14 18.9 °C 14.9 °C 1022.2 hPa Calm     75% 0 mm 0 W/m2
20:19 18.7 °C 14.9 °C 1022.2 hPa SW 0.6 km/h 3.2 km/h 76% 0 mm 0 W/m2
20:24 18.5 °C 14.7 °C 1022.2 hPa SW 1 km/h 4.8 km/h 76% 0 mm 0 W/m2
20:29 18.4 °C 14.6 °C 1022.2 hPa Calm     76% 0 mm 0 W/m2
20:34 18.1 °C 14.3 °C 1022.2 hPa SW 1 km/h 3.2 km/h 76% 0 mm 0 W/m2
20:39 17.8 °C 14.1 °C 1022.2 hPa SW 0.3 km/h 3.2 km/h 76% 0 mm 0 W/m2
20:44 17.8 °C 14 °C 1022.2 hPa Calm   1.6 km/h 76% 0 mm 0 W/m2
20:49 17.8 °C 14.1 °C 1022.2 hPa Calm     76.6% 0 mm 0 W/m2
20:54 17.8 °C 14.2 °C 1022.2 hPa Calm     77% 0 mm 0 W/m2
20:59 17.7 °C 14.1 °C 1022.2 hPa Calm     77% 0 mm 0 W/m2
21:03 17.6 °C 14 °C 1022.2 hPa Calm     77% 0 mm 0 W/m2
21:09 17.4 °C 13.8 °C 1022.6 hPa Calm     77% 0 mm 0 W/m2
21:14 17.2 °C 13.7 °C 1022.6 hPa Calm     77.6% 0 mm 0 W/m2
21:19 16.9 °C 13.7 °C 1022.6 hPa Calm     78.6% 0 mm 0 W/m2
21:24 16.7 °C 13.6 °C 1022.6 hPa Calm     79% 0 mm 0 W/m2
21:29 16.6 °C 13.6 °C 1022.6 hPa Calm     79.8% 0 mm 0 W/m2
21:34 16.5 °C 13.6 °C 1022.6 hPa SW 2.3 km/h 4.8 km/h 80.4% 0 mm 0 W/m2
21:39 16.5 °C 13.7 °C 1022.6 hPa SW 1.6 km/h 4.8 km/h 81% 0 mm 0 W/m2
21:44 16.5 °C 13.7 °C 1022.6 hPa Calm   1.6 km/h 81% 0 mm 0 W/m2
21:49 16.5 °C 13.7 °C 1022.6 hPa Calm     81% 0 mm 0 W/m2
21:54 16.5 °C 13.7 °C 1022.6 hPa SSE 2.6 km/h 6.4 km/h 81% 0 mm 0 W/m2
21:59 16.4 °C 13.6 °C 1022.6 hPa SE 3.4 km/h 6.4 km/h 81% 0 mm 0 W/m2
22:04 16.5 °C 13.7 °C 1022.6 hPa SE 3.2 km/h 6.4 km/h 81% 0 mm 0 W/m2
22:09 16.6 °C 13.8 °C 1022.6 hPa SE 2.1 km/h 4.8 km/h 81% 0 mm 0 W/m2
22:14 16.6 °C 13.7 °C 1022.6 hPa SE 0.6 km/h 4.8 km/h 80.2% 0 mm 0 W/m2
22:18 16.6 °C 13.6 °C 1022.6 hPa Calm   1.6 km/h 80% 0 mm 0 W/m2
22:24 16.5 °C 13.5 °C 1022.6 hPa Calm     80% 0 mm 0 W/m2
22:29 16.2 °C 13.2 °C 1022.6 hPa Calm   1.6 km/h 80% 0 mm 0 W/m2
22:34 15.9 °C 13.2 °C 1022.6 hPa Calm     81% 0 mm 0 W/m2
22:39 15.8 °C 13 °C 1022.6 hPa Calm     81% 0 mm 0 W/m2
22:44 15.7 °C 13.1 °C 1022.6 hPa SE 1 km/h 4.8 km/h 82% 0 mm 0 W/m2
22:49 15.8 °C 13.2 °C 1022.6 hPa SE 2.6 km/h 4.8 km/h 82% 0 mm 0 W/m2
22:54 15.8 °C 13.3 °C 1022.6 hPa SSE 4.8 km/h 8 km/h 82.4% 0 mm 0 W/m2
22:59 15.8 °C 13.3 °C 1022.6 hPa SSE 1.3 km/h 6.4 km/h 82.4% 0 mm 0 W/m2
23:04 15.8 °C 13.2 °C 1022.9 hPa Calm   3.2 km/h 82% 0 mm 0 W/m2
23:09 15.5 °C 12.9 °C 1022.9 hPa Calm     82% 0 mm 0 W/m2
23:14 15.2 °C 12.7 °C 1022.9 hPa Calm     82.4% 0 mm 0 W/m2
23:19 15.1 °C 12.7 °C 1022.9 hPa Calm     83% 0 mm 0 W/m2
23:24 14.9 °C 12.6 °C 1022.9 hPa Calm     83.4% 0 mm 0 W/m2
23:29 14.9 °C 12.7 °C 1022.9 hPa Calm   1.6 km/h 84% 0 mm 0 W/m2
23:34 14.7 °C 12.6 °C 1022.9 hPa Calm     84% 0 mm 0 W/m2
23:39 14.7 °C 12.4 °C 1022.9 hPa Calm     84% 0 mm 0 W/m2
23:44 14.4 °C 12.4 °C 1022.9 hPa SSE 1 km/h 3.2 km/h 84.8% 0 mm 0 W/m2
23:49 14.4 °C 12.4 °C 1022.9 hPa SSE 0.6 km/h 3.2 km/h 85% 0 mm 0 W/m2
23:54 14.4 °C 12.6 °C 1022.9 hPa SSE 0.6 km/h 3.2 km/h 86% 0 mm 0 W/m2
23:59 14.4 °C 12.6 °C 1022.9 hPa Calm     86% 0 mm 0 W/m2
Bath Spa Weather
Compliments of Weather Underground - 2 mb